Time;durP1;ratioP1;P1;durP2;ratioP2;P2;SDS_P1;SDS_P2;PMS_P1;PMS_P2;Temp;Humidity;BMP_temperature;BMP_pressure;BME280_temperature;BME280_humidity;BME280_pressure;Samples;Min_cycle;Max_cycle;Signal;HPM_P1;HPM_P2
2023/09/12 00:01:16;;;;;;;0.00;0.00;;;17.30;49.20;;;;;;5114062;28;20221;-48
2023/09/12 00:03:46;;;;;;;0.10;0.10;;;17.30;49.00;;;;;;5113092;28;20194;-47
2023/09/12 00:06:17;;;;;;;0.00;0.00;;;17.30;48.90;;;;;;5113025;28;20205;-48
2023/09/12 00:08:47;;;;;;;0.00;0.00;;;17.40;48.80;;;;;;5112013;28;20194;-47
2023/09/12 00:11:18;;;;;;;0.10;0.10;;;17.40;48.70;;;;;;5113448;28;20189;-48
2023/09/12 00:13:51;;;;;;;0.00;0.00;;;17.40;48.60;;;;;;5112143;28;20609;-47
2023/09/12 00:16:21;;;;;;;0.00;0.00;;;17.40;48.50;;;;;;5112781;28;20543;-47
2023/09/12 00:18:52;;;;;;;0.10;0.10;;;17.40;48.30;;;;;;5112593;28;20260;-48
2023/09/12 00:21:22;;;;;;;0.00;0.00;;;17.50;48.20;;;;;;5113517;28;20228;-48
2023/09/12 00:23:53;;;;;;;0.10;0.10;;;17.50;48.00;;;;;;5113491;28;20197;-48
2023/09/12 00:26:24;;;;;;;0.00;0.00;;;17.50;47.90;;;;;;5112625;28;20190;-47
2023/09/12 00:28:56;;;;;;;0.10;0.10;;;17.50;47.70;;;;;;5111704;28;20192;-48
2023/09/12 00:31:27;;;;;;;0.00;0.00;;;17.50;47.50;;;;;;5112468;28;20197;-48
2023/09/12 00:33:58;;;;;;;0.00;0.00;;;17.60;47.40;;;;;;5112189;28;20190;-47
2023/09/12 00:36:28;;;;;;;0.00;0.00;;;17.60;47.20;;;;;;5112905;28;20198;-46
2023/09/12 00:38:59;;;;;;;0.00;0.00;;;17.60;47.10;;;;;;5112954;28;20569;-46
2023/09/12 00:41:30;;;;;;;0.00;0.00;;;17.70;47.00;;;;;;5112512;28;20254;-48
2023/09/12 00:44:02;;;;;;;0.00;0.00;;;17.70;46.80;;;;;;5112622;28;20197;-47
2023/09/12 00:46:34;;;;;;;0.00;0.00;;;17.70;46.70;;;;;;5112174;28;20189;-47
2023/09/12 00:49:05;;;;;;;0.10;0.10;;;17.70;46.50;;;;;;5112565;28;20197;-48
2023/09/12 00:51:37;;;;;;;0.00;0.00;;;17.70;46.40;;;;;;5112905;28;20672;-47
2023/09/12 00:54:08;;;;;;;0.00;0.00;;;17.70;46.30;;;;;;5112054;28;20590;-48
2023/09/12 00:56:39;;;;;;;0.00;0.00;;;17.80;46.30;;;;;;5095714;22;20227;-57
2023/09/12 00:59:13;;;;;;;0.03;0.03;;;17.80;46.10;;;;;;5070811;28;20594;-58
2023/09/12 01:01:44;;;;;;;0.00;0.00;;;17.80;46.00;;;;;;5071583;28;20698;-58
2023/09/12 01:04:15;;;;;;;0.05;0.05;;;17.80;45.80;;;;;;5069702;28;20194;-57
2023/09/12 01:06:48;;;;;;;0.00;0.00;;;17.80;45.70;;;;;;5051950;28;20667;-58
2023/09/12 01:09:19;;;;;;;0.00;0.00;;;17.90;45.70;;;;;;5051423;28;20215;-58
2023/09/12 01:11:50;;;;;;;0.00;0.00;;;17.90;45.60;;;;;;5051597;28;20228;-57
2023/09/12 01:14:22;;;;;;;0.00;0.00;;;17.90;45.60;;;;;;5051435;28;20203;-58
2023/09/12 01:16:53;;;;;;;0.10;0.10;;;17.90;45.60;;;;;;5051436;28;20208;-53
2023/09/12 01:19:24;;;;;;;0.10;0.10;;;17.90;45.50;;;;;;5051885;28;20465;-58
2023/09/12 01:22:18;;;;;;;0.00;0.00;;;17.90;45.40;;;;;;5050930;28;20593;-58
2023/09/12 01:25:15;;;;;;;0.00;0.00;;;18.00;45.40;;;;;;5050530;28;20187;-56
2023/09/12 01:27:51;;;;;;;0.00;0.00;;;18.00;45.20;;;;;;5050496;28;20192;-56
2023/09/12 01:30:23;;;;;;;0.00;0.00;;;18.10;45.10;;;;;;5070921;28;20222;-58
2023/09/12 01:32:55;;;;;;;0.00;0.00;;;18.00;45.10;;;;;;5071103;28;20665;-57
2023/09/12 01:35:25;;;;;;;0.00;0.00;;;18.10;45.00;;;;;;5043007;28;20655;-58
2023/09/12 01:37:56;;;;;;;0.00;0.00;;;18.10;44.90;;;;;;5051246;28;20196;-53
2023/09/12 01:40:41;;;;;;;0.00;0.00;;;18.10;44.80;;;;;;5045439;28;20238;-56
2023/09/12 01:43:15;;;;;;;0.03;0.03;;;18.10;44.70;;;;;;5051163;28;20278;-58
2023/09/12 01:45:47;;;;;;;0.00;0.00;;;18.20;44.80;;;;;;5051366;28;20261;-58
2023/09/12 01:48:22;;;;;;;0.00;0.00;;;18.20;44.70;;;;;;5051051;28;20218;-57
2023/09/12 01:50:53;;;;;;;0.10;0.10;;;18.20;44.60;;;;;;5050843;28;20246;-54
2023/09/12 01:53:24;;;;;;;0.00;0.00;;;18.20;44.70;;;;;;5050877;28;20195;-57
2023/09/12 01:55:56;;;;;;;0.00;0.00;;;18.20;44.70;;;;;;5052723;28;20210;-57
2023/09/12 01:58:29;;;;;;;0.10;0.10;;;18.20;44.60;;;;;;5051495;28;20199;-57
2023/09/12 02:01:00;;;;;;;0.00;0.00;;;18.30;44.60;;;;;;5051349;28;20891;-57
2023/09/12 02:03:30;;;;;;;0.00;0.00;;;18.30;44.50;;;;;;5051453;28;20686;-58
2023/09/12 02:06:01;;;;;;;0.00;0.00;;;18.30;44.50;;;;;;5051185;28;20188;-58
2023/09/12 02:08:31;;;;;;;0.08;0.08;;;18.30;44.50;;;;;;5050946;28;20188;-58
2023/09/12 02:11:02;;;;;;;0.10;0.10;;;18.40;44.40;;;;;;5051060;28;20219;-57
2023/09/12 02:13:34;;;;;;;0.00;0.00;;;18.40;44.40;;;;;;5051316;28;20198;-57
2023/09/12 02:16:05;;;;;;;0.00;0.00;;;18.40;44.30;;;;;;5051299;28;20203;-58
2023/09/12 02:18:36;;;;;;;0.00;0.00;;;18.40;44.40;;;;;;5047815;28;20191;-58
2023/09/12 02:21:06;;;;;;;0.00;0.00;;;18.50;44.60;;;;;;5050221;28;20234;-57
2023/09/12 02:23:37;;;;;;;0.00;0.00;;;18.50;44.50;;;;;;5050372;28;20283;-58
2023/09/12 02:26:08;;;;;;;0.00;0.00;;;18.50;44.60;;;;;;5050741;28;20200;-56
2023/09/12 02:28:40;;;;;;;0.00;0.00;;;18.50;44.70;;;;;;5050463;28;20566;-56
2023/09/12 02:31:14;;;;;;;0.00;0.00;;;18.60;44.70;;;;;;5050978;28;20211;-56
2023/09/12 02:33:45;;;;;;;0.00;0.00;;;18.60;44.70;;;;;;5052769;28;20195;-55
2023/09/12 02:36:15;;;;;;;0.00;0.00;;;18.60;44.70;;;;;;5054441;28;20200;-55
2023/09/12 02:38:46;;;;;;;0.00;0.00;;;18.60;44.60;;;;;;5054648;28;20196;-53
2023/09/12 02:41:16;;;;;;;0.00;0.00;;;18.70;44.60;;;;;;5054946;28;20231;-57
2023/09/12 02:43:49;;;;;;;0.00;0.00;;;18.70;44.60;;;;;;5054474;28;20195;-56
2023/09/12 02:46:20;;;;;;;0.00;0.00;;;18.70;44.50;;;;;;5054489;28;20254;-56
2023/09/12 02:48:50;;;;;;;0.00;0.00;;;18.80;44.40;;;;;;5053350;28;20195;-55
2023/09/12 02:51:21;;;;;;;0.00;0.00;;;18.80;44.30;;;;;;5053876;28;20234;-56
2023/09/12 02:53:51;;;;;;;0.00;0.00;;;18.90;44.30;;;;;;5054912;28;20191;-59
2023/09/12 02:56:22;;;;;;;0.08;0.08;;;18.90;44.30;;;;;;5054526;28;20265;-58
2023/09/12 02:58:54;;;;;;;0.00;0.00;;;18.90;44.30;;;;;;5055146;28;20197;-59
2023/09/12 03:01:27;;;;;;;0.00;0.00;;;19.00;44.20;;;;;;5053297;28;20223;-58
2023/09/12 03:03:58;;;;;;;0.10;0.10;;;19.00;44.20;;;;;;5053926;28;20234;-56
2023/09/12 03:06:28;;;;;;;0.00;0.00;;;19.00;44.10;;;;;;5053427;28;20202;-58
2023/09/12 03:08:59;;;;;;;0.10;0.10;;;19.10;44.00;;;;;;5054146;28;20662;-58
2023/09/12 03:11:30;;;;;;;0.10;0.10;;;19.10;44.00;;;;;;5054059;28;20196;-58
2023/09/12 03:14:02;;;;;;;0.00;0.00;;;19.20;43.90;;;;;;5053746;28;20202;-58
2023/09/12 03:16:33;;;;;;;0.00;0.00;;;19.20;43.90;;;;;;5054237;28;20199;-57
2023/09/12 03:19:04;;;;;;;0.00;0.00;;;19.20;44.00;;;;;;5052785;28;20198;-57
2023/09/12 03:21:34;;;;;;;0.00;0.00;;;19.20;44.00;;;;;;5053993;28;20618;-54
2023/09/12 03:24:05;;;;;;;0.00;0.00;;;19.30;44.00;;;;;;5053908;28;20435;-51
2023/09/12 03:26:38;;;;;;;0.00;0.00;;;19.30;44.00;;;;;;5053439;28;20191;-50
2023/09/12 03:29:11;;;;;;;0.03;0.03;;;19.30;43.90;;;;;;5052661;28;20196;-52
2023/09/12 03:31:41;;;;;;;0.00;0.00;;;19.40;44.00;;;;;;5052894;28;20252;-50
2023/09/12 03:34:12;;;;;;;0.00;0.00;;;19.40;43.80;;;;;;5057533;28;20598;-52
2023/09/12 03:36:42;;;;;;;0.00;0.00;;;19.40;43.60;;;;;;5053122;28;20195;-55
2023/09/12 03:39:13;;;;;;;0.00;0.00;;;19.50;43.70;;;;;;5052622;28;20202;-54
2023/09/12 03:41:44;;;;;;;0.10;0.10;;;19.50;43.70;;;;;;5053061;28;20219;-56
2023/09/12 03:44:16;;;;;;;0.10;0.10;;;19.50;43.70;;;;;;5051973;28;20214;-55
2023/09/12 03:46:47;;;;;;;0.00;0.00;;;19.60;43.70;;;;;;5052039;28;20195;-56
2023/09/12 03:49:17;;;;;;;0.03;0.03;;;19.60;43.60;;;;;;5052038;28;20211;-56
2023/09/12 03:51:48;;;;;;;0.10;0.10;;;19.60;43.40;;;;;;5053323;28;20195;-53
2023/09/12 03:54:19;;;;;;;0.00;0.00;;;19.70;44.10;;;;;;5052949;28;20532;-56
2023/09/12 03:56:49;;;;;;;0.00;0.00;;;19.70;43.20;;;;;;5052780;28;20726;-55
2023/09/12 03:59:22;;;;;;;0.00;0.00;;;19.70;43.20;;;;;;5069380;28;20313;-56
2023/09/12 04:01:52;;;;;;;0.05;0.05;;;19.80;43.20;;;;;;5072555;28;20259;-56
2023/09/12 04:04:23;;;;;;;0.00;0.00;;;19.80;43.20;;;;;;5069288;28;20187;-56
2023/09/12 04:06:54;;;;;;;0.00;0.00;;;19.80;43.10;;;;;;5053261;28;20199;-56
2023/09/12 04:09:25;;;;;;;0.00;0.00;;;19.90;43.10;;;;;;5052602;28;20215;-55
2023/09/12 04:11:55;;;;;;;0.00;0.00;;;19.90;43.00;;;;;;5052634;28;20187;-55
2023/09/12 04:14:28;;;;;;;0.03;0.03;;;19.90;42.80;;;;;;5052036;28;20196;-55
2023/09/12 04:16:59;;;;;;;0.00;0.00;;;19.90;42.70;;;;;;5052854;28;20253;-56
2023/09/12 04:19:29;;;;;;;0.00;0.00;;;20.00;42.70;;;;;;5053005;28;20266;-56
2023/09/12 04:22:00;;;;;;;0.00;0.00;;;20.00;42.60;;;;;;5052569;28;20596;-54
2023/09/12 04:24:31;;;;;;;0.10;0.10;;;20.00;42.50;;;;;;5052016;28;20199;-56
2023/09/12 04:27:01;;;;;;;0.00;0.00;;;20.10;42.50;;;;;;5052001;28;20206;-54
2023/09/12 04:29:39;;;;;;;0.10;0.10;;;20.10;42.50;;;;;;5051878;28;20214;-55
2023/09/12 04:32:09;;;;;;;0.00;0.00;;;20.10;42.40;;;;;;5052121;28;20671;-54
2023/09/12 04:34:40;;;;;;;0.00;0.00;;;20.20;42.40;;;;;;5052037;28;20203;-55
2023/09/12 04:37:11;;;;;;;0.00;0.00;;;20.20;42.30;;;;;;5052158;28;20204;-53
2023/09/12 04:39:42;;;;;;;0.10;0.10;;;20.20;42.50;;;;;;5052624;28;20211;-56
2023/09/12 04:42:12;;;;;;;0.00;0.00;;;20.20;42.60;;;;;;5052301;28;20226;-55
2023/09/12 04:44:45;;;;;;;0.10;0.10;;;20.30;42.20;;;;;;5052250;28;20204;-52
2023/09/12 04:47:16;;;;;;;0.00;0.00;;;20.30;42.30;;;;;;5048896;28;20203;-53
2023/09/12 04:49:47;;;;;;;0.00;0.00;;;20.30;42.20;;;;;;5050669;28;20550;-50
2023/09/12 04:52:18;;;;;;;0.00;0.00;;;20.30;42.10;;;;;;5052175;28;20288;-53
2023/09/12 04:54:48;;;;;;;0.00;0.00;;;20.40;42.20;;;;;;5051538;28;20542;-52
2023/09/12 04:57:19;;;;;;;0.00;0.00;;;20.40;42.20;;;;;;5081377;22;20303;-46
2023/09/12 04:59:53;;;;;;;0.00;0.00;;;20.40;42.00;;;;;;5062857;28;20222;-46
2023/09/12 05:02:23;;;;;;;0.03;0.03;;;20.40;42.00;;;;;;5051754;28;20284;-45
2023/09/12 05:04:54;;;;;;;0.00;0.00;;;20.40;42.00;;;;;;5051251;28;20203;-45
2023/09/12 05:07:25;;;;;;;0.08;0.08;;;20.50;42.10;;;;;;5065635;28;20203;-46
2023/09/12 05:09:55;;;;;;;0.00;0.00;;;20.50;42.10;;;;;;5051216;28;20219;-45
2023/09/12 05:12:26;;;;;;;0.00;0.00;;;20.50;42.30;;;;;;5051732;28;20196;-45
2023/09/12 05:14:59;;;;;;;0.10;0.10;;;20.50;42.30;;;;;;5051821;28;20200;-45
2023/09/12 05:17:30;;;;;;;0.00;0.00;;;20.50;42.40;;;;;;5051196;28;20689;-46
2023/09/12 05:20:00;;;;;;;0.00;0.00;;;20.60;42.50;;;;;;5051621;28;20219;-46
2023/09/12 05:22:31;;;;;;;0.00;0.00;;;20.60;42.60;;;;;;5051807;28;20226;-45
2023/09/12 05:25:02;;;;;;;0.00;0.00;;;20.60;42.60;;;;;;5050596;28;20203;-45
2023/09/12 05:27:32;;;;;;;0.00;0.00;;;20.60;42.60;;;;;;5051176;28;20674;-46
2023/09/12 05:30:05;;;;;;;0.00;0.00;;;20.60;42.50;;;;;;5050496;28;20215;-46
2023/09/12 05:32:36;;;;;;;0.00;0.00;;;20.60;42.40;;;;;;5051174;28;20241;-45
2023/09/12 05:35:07;;;;;;;0.00;0.00;;;20.60;42.40;;;;;;5050762;28;20196;-46
2023/09/12 05:37:38;;;;;;;0.05;0.05;;;20.60;42.50;;;;;;5051272;28;20195;-46
2023/09/12 05:40:10;;;;;;;0.00;0.00;;;20.60;42.50;;;;;;5050011;28;20215;-45
2023/09/12 05:42:40;;;;;;;0.00;0.00;;;20.60;42.60;;;;;;5054426;28;20234;-45
2023/09/12 05:45:13;;;;;;;0.00;0.00;;;20.60;42.50;;;;;;5051104;28;20561;-46
2023/09/12 05:47:44;;;;;;;0.00;0.00;;;20.60;42.40;;;;;;5050461;28;20196;-46
2023/09/12 05:50:15;;;;;;;0.10;0.10;;;20.60;42.20;;;;;;5050718;28;20636;-45
2023/09/12 05:52:45;;;;;;;0.00;0.00;;;20.60;42.10;;;;;;5050488;28;20188;-46
2023/09/12 05:55:16;;;;;;;0.10;0.10;;;20.60;41.90;;;;;;5065945;22;20199;-54
2023/09/12 05:57:47;;;;;;;0.00;0.00;;;20.50;41.70;;;;;;5069806;28;20210;-56
2023/09/12 06:00:20;;;;;;;0.10;0.10;;;20.50;41.70;;;;;;5071303;28;20301;-54
2023/09/12 06:02:51;;;;;;;0.00;0.00;;;20.60;41.60;;;;;;5050489;28;20230;-55
2023/09/12 06:05:21;;;;;;;0.00;0.00;;;20.50;41.60;;;;;;5051017;28;20203;-56
2023/09/12 06:07:52;;;;;;;0.00;0.00;;;20.50;41.70;;;;;;5050937;28;20183;-56
2023/09/12 06:10:23;;;;;;;0.00;0.00;;;20.50;41.80;;;;;;5070815;28;20219;-54
2023/09/12 06:12:53;;;;;;;0.00;0.00;;;20.50;42.00;;;;;;5070443;28;20199;-52
2023/09/12 06:15:26;;;;;;;0.00;0.00;;;20.50;42.00;;;;;;5071171;28;20615;-50
2023/09/12 06:17:56;;;;;;;0.00;0.00;;;20.50;41.70;;;;;;5070546;28;20233;-53
2023/09/12 06:20:27;;;;;;;0.00;0.00;;;20.50;41.60;;;;;;5049223;28;20582;-52
2023/09/12 06:22:58;;;;;;;0.00;0.00;;;20.50;41.50;;;;;;5050162;28;20219;-55
2023/09/12 06:25:29;;;;;;;0.10;0.10;;;20.50;41.50;;;;;;5050654;28;20526;-55
2023/09/12 06:28:00;;;;;;;0.00;0.00;;;20.50;41.40;;;;;;5049906;28;20184;-50
2023/09/12 06:30:32;;;;;;;0.00;0.00;;;20.40;41.30;;;;;;5049284;28;20222;-52
2023/09/12 06:33:03;;;;;;;0.00;0.00;;;20.40;41.30;;;;;;5051048;28;20354;-55
2023/09/12 06:35:34;;;;;;;0.05;0.05;;;20.40;41.40;;;;;;5048612;28;20204;-54
2023/09/12 06:38:05;;;;;;;0.00;0.00;;;20.40;41.40;;;;;;5050400;28;20198;-51
2023/09/12 06:40:36;;;;;;;0.10;0.10;;;20.40;41.50;;;;;;5050138;28;20222;-54
2023/09/12 06:43:07;;;;;;;0.00;0.00;;;20.30;41.50;;;;;;5051468;28;20272;-51
2023/09/12 06:45:41;;;;;;;0.00;0.00;;;20.30;41.50;;;;;;5051088;28;20196;-55
2023/09/12 06:48:11;;;;;;;0.05;0.05;;;20.20;41.60;;;;;;5049060;28;20191;-55
2023/09/12 06:50:42;;;;;;;0.10;0.10;;;20.30;41.70;;;;;;5050309;28;20277;-51
2023/09/12 06:53:13;;;;;;;0.08;0.08;;;20.30;41.70;;;;;;5049743;28;20657;-55
2023/09/12 06:55:43;;;;;;;0.00;0.00;;;20.20;41.70;;;;;;5064568;22;20226;-58
2023/09/12 06:58:14;;;;;;;0.10;0.10;;;20.20;41.70;;;;;;5070072;28;20183;-60
2023/09/12 07:00:47;;;;;;;0.00;0.00;;;20.20;41.80;;;;;;5069589;28;20211;-60
2023/09/12 07:03:17;;;;;;;0.00;0.00;;;20.20;41.80;;;;;;5069955;28;20573;-58
2023/09/12 07:05:48;;;;;;;0.08;0.08;;;20.20;41.80;;;;;;5055333;28;20235;-58
2023/09/12 07:08:18;;;;;;;0.00;0.00;;;20.20;41.80;;;;;;5050555;28;20647;-58
2023/09/12 07:10:49;;;;;;;0.00;0.00;;;20.10;41.80;;;;;;5049203;28;20473;-58
2023/09/12 07:13:20;;;;;;;0.10;0.10;;;20.10;42.50;;;;;;5049172;28;20195;-58
2023/09/12 07:15:52;;;;;;;0.10;0.10;;;20.10;41.90;;;;;;5049216;28;20659;-58
2023/09/12 07:18:23;;;;;;;0.10;0.10;;;20.00;41.80;;;;;;5050517;28;20242;-58
2023/09/12 07:21:01;;;;;;;0.00;0.00;;;20.00;41.80;;;;;;5052930;28;20219;-59
2023/09/12 07:23:32;;;;;;;0.00;0.00;;;20.00;41.90;;;;;;5054066;28;20621;-59
2023/09/12 07:26:03;;;;;;;0.00;0.00;;;20.00;41.90;;;;;;5053758;28;20226;-59
2023/09/12 07:28:34;;;;;;;0.00;0.00;;;20.00;42.00;;;;;;5053717;28;20223;-59
2023/09/12 07:31:07;;;;;;;0.00;0.00;;;19.90;42.00;;;;;;5054020;28;20265;-59
2023/09/12 07:33:37;;;;;;;0.00;0.00;;;19.90;42.10;;;;;;5052773;28;20192;-60
2023/09/12 07:36:08;;;;;;;0.10;0.10;;;19.90;42.10;;;;;;5052929;28;20200;-59
2023/09/12 07:38:39;;;;;;;0.00;0.00;;;19.90;42.10;;;;;;5056957;28;20195;-60
2023/09/12 07:41:09;;;;;;;0.00;0.00;;;19.90;42.20;;;;;;5072936;28;20218;-60
2023/09/12 07:43:40;;;;;;;0.00;0.00;;;19.90;42.10;;;;;;5058097;28;20623;-59
2023/09/12 07:46:13;;;;;;;0.00;0.00;;;19.90;42.10;;;;;;5051806;28;20199;-59
2023/09/12 07:48:43;;;;;;;0.00;0.00;;;19.90;42.10;;;;;;5053554;28;20227;-60
2023/09/12 07:51:18;;;;;;;0.10;0.10;;;19.80;42.00;;;;;;5053467;28;20680;-58
2023/09/12 07:53:48;;;;;;;0.00;0.00;;;19.80;42.10;;;;;;5053191;28;20202;-58
2023/09/12 07:56:19;;;;;;;0.00;0.00;;;19.80;42.10;;;;;;5072281;22;20222;-44
2023/09/12 07:58:51;;;;;;;0.05;0.05;;;19.80;42.10;;;;;;5072504;28;20202;-46
2023/09/12 08:01:23;;;;;;;0.10;0.10;;;19.80;42.10;;;;;;5053134;28;20706;-47
2023/09/12 08:03:54;;;;;;;0.10;0.10;;;19.70;42.00;;;;;;5053731;28;20223;-45
2023/09/12 08:06:25;;;;;;;0.00;0.00;;;19.70;42.10;;;;;;5053398;28;20199;-47
2023/09/12 08:08:56;;;;;;;0.00;0.00;;;19.70;42.10;;;;;;5052934;28;20242;-45
2023/09/12 08:11:27;;;;;;;0.00;0.00;;;19.70;42.20;;;;;;5052238;28;20191;-46
2023/09/12 08:13:57;;;;;;;0.05;0.05;;;19.60;42.10;;;;;;5052847;28;20195;-47
2023/09/12 08:16:31;;;;;;;0.00;0.00;;;19.60;42.20;;;;;;5052635;28;20196;-46
2023/09/12 08:19:01;;;;;;;0.05;0.05;;;19.60;42.30;;;;;;5052439;28;20227;-47
2023/09/12 08:21:32;;;;;;;0.10;0.10;;;19.60;42.30;;;;;;5052172;28;20206;-47
2023/09/12 08:24:03;;;;;;;0.00;0.00;;;19.60;42.20;;;;;;5052125;28;20227;-47
2023/09/12 08:26:33;;;;;;;0.00;0.00;;;19.60;42.20;;;;;;5052994;28;20655;-47
2023/09/12 08:29:04;;;;;;;0.10;0.10;;;19.60;42.10;;;;;;5052551;28;20659;-47
2023/09/12 08:31:36;;;;;;;0.00;0.00;;;19.50;42.10;;;;;;5052164;28;20321;-47
2023/09/12 08:34:07;;;;;;;0.00;0.00;;;19.50;42.10;;;;;;5052454;28;20207;-45
2023/09/12 08:36:38;;;;;;;0.00;0.00;;;19.50;42.10;;;;;;5052068;28;20722;-46
2023/09/12 08:39:09;;;;;;;0.00;0.00;;;19.50;42.10;;;;;;5051916;28;20195;-47
2023/09/12 08:41:40;;;;;;;0.00;0.00;;;19.50;42.10;;;;;;5052566;28;20261;-47
2023/09/12 08:44:14;;;;;;;0.00;0.00;;;19.50;42.00;;;;;;5052123;28;20223;-46
2023/09/12 08:46:47;;;;;;;0.05;0.05;;;19.40;42.00;;;;;;5052292;28;20195;-46
2023/09/12 08:49:18;;;;;;;0.00;0.00;;;19.40;42.10;;;;;;5052245;28;20220;-46
2023/09/12 08:51:49;;;;;;;0.08;0.08;;;19.40;42.10;;;;;;5052536;28;20203;-46
2023/09/12 08:54:19;;;;;;;0.05;0.05;;;19.40;42.10;;;;;;5051732;28;20202;-44
2023/09/12 08:56:50;;;;;;;0.00;0.00;;;19.40;42.20;;;;;;5052966;28;20211;-46
2023/09/12 08:59:21;;;;;;;0.00;0.00;;;19.40;42.20;;;;;;5051547;28;20222;-46
2023/09/12 09:01:55;;;;;;;0.00;0.00;;;19.40;42.20;;;;;;5051756;28;20543;-45
2023/09/12 09:04:28;;;;;;;0.05;0.05;;;19.40;42.10;;;;;;5051681;28;20374;-46
2023/09/12 09:07:00;;;;;;;0.00;0.00;;;19.30;42.10;;;;;;5052103;28;20235;-46
2023/09/12 09:09:31;;;;;;;0.00;0.00;;;19.30;42.20;;;;;;5051677;28;20226;-45
2023/09/12 09:12:02;;;;;;;0.00;0.00;;;19.30;42.10;;;;;;5052661;28;20206;-45
2023/09/12 09:14:34;;;;;;;0.03;0.03;;;19.30;42.10;;;;;;5052175;28;20213;-44
2023/09/12 09:17:06;;;;;;;0.00;0.00;;;19.30;42.20;;;;;;5048958;28;20191;-46
2023/09/12 09:19:47;;;;;;;0.00;0.00;;;19.30;42.10;;;;;;5051504;28;20219;-44
2023/09/12 09:22:18;;;;;;;0.00;0.00;;;19.20;42.00;;;;;;5043807;28;20187;-45
2023/09/12 09:24:48;;;;;;;0.00;0.00;;;19.20;42.00;;;;;;5049904;28;20192;-46
2023/09/12 09:27:36;;;;;;;0.00;0.00;;;19.20;42.10;;;;;;5051336;28;20214;-45
2023/09/12 09:30:07;;;;;;;0.00;0.00;;;19.20;42.10;;;;;;5050994;28;20294;-45
2023/09/12 09:32:40;;;;;;;0.00;0.00;;;19.20;42.10;;;;;;5050284;28;20200;-44
2023/09/12 09:35:12;;;;;;;0.00;0.00;;;19.20;42.20;;;;;;5041884;28;20195;-45
2023/09/12 09:37:43;;;;;;;0.00;0.00;;;19.20;42.20;;;;;;5050788;28;20223;-45
2023/09/12 09:40:14;;;;;;;0.00;0.00;;;19.20;42.20;;;;;;5050149;28;20216;-45
2023/09/12 09:42:45;;;;;;;0.00;0.00;;;19.20;42.20;;;;;;5051096;28;20223;-45
2023/09/12 09:45:15;;;;;;;0.00;0.00;;;19.10;42.10;;;;;;5050709;28;20202;-46
2023/09/12 09:47:51;;;;;;;0.03;0.03;;;19.10;42.20;;;;;;5051186;28;20195;-45
2023/09/12 09:50:22;;;;;;;0.00;0.00;;;19.10;42.10;;;;;;5050281;28;20246;-46
2023/09/12 09:53:01;;;;;;;0.00;0.00;;;19.10;42.10;;;;;;5050842;28;20207;-45
2023/09/12 09:55:32;;;;;;;0.00;0.00;;;19.10;42.20;;;;;;5064518;22;20191;-55
2023/09/12 09:58:02;;;;;;;0.00;0.00;;;19.10;42.20;;;;;;5070000;28;20234;-55
2023/09/12 10:00:34;;;;;;;0.00;0.00;;;19.00;42.20;;;;;;5070248;28;20222;-53
2023/09/12 10:03:08;;;;;;;0.00;0.00;;;19.10;42.30;;;;;;5069211;28;20218;-50
2023/09/12 10:05:41;;;;;;;0.10;0.10;;;19.00;42.20;;;;;;5070020;28;20289;-52
2023/09/12 10:08:17;;;;;;;0.00;0.00;;;19.00;42.20;;;;;;5070101;28;20198;-57
2023/09/12 10:10:48;;;;;;;0.00;0.00;;;19.00;42.20;;;;;;5070638;28;20215;-51
2023/09/12 10:13:21;;;;;;;0.00;0.00;;;19.00;42.20;;;;;;5070484;28;20202;-53
2023/09/12 10:15:53;;;;;;;0.00;0.00;;;19.00;42.30;;;;;;5070204;28;20183;-53
2023/09/12 10:18:29;;;;;;;0.00;0.00;;;19.00;42.30;;;;;;5070363;28;20198;-51
2023/09/12 10:21:06;;;;;;;0.00;0.00;;;18.90;42.40;;;;;;5069665;28;20214;-49
2023/09/12 10:23:44;;;;;;;0.00;0.00;;;18.90;42.40;;;;;;5069585;28;20626;-53
2023/09/12 10:26:16;;;;;;;0.00;0.00;;;18.90;42.40;;;;;;5068831;28;20273;-53
2023/09/12 10:28:48;;;;;;;0.00;0.00;;;18.90;42.40;;;;;;5070452;28;20194;-55
2023/09/12 10:31:19;;;;;;;0.00;0.00;;;18.90;42.40;;;;;;5068937;28;20207;-51
2023/09/12 10:33:53;;;;;;;0.10;0.10;;;18.90;42.40;;;;;;5070509;28;20199;-50
2023/09/12 10:36:25;;;;;;;0.00;0.00;;;18.90;42.40;;;;;;5070352;28;20282;-53
2023/09/12 10:38:57;;;;;;;0.00;0.00;;;18.80;42.40;;;;;;5071148;28;20205;-52
2023/09/12 10:41:28;;;;;;;0.00;0.00;;;18.80;42.40;;;;;;5069727;28;20539;-51
2023/09/12 10:44:01;;;;;;;0.00;0.00;;;18.80;42.40;;;;;;5070812;28;20226;-51
2023/09/12 10:46:32;;;;;;;0.00;0.00;;;18.80;42.50;;;;;;5069665;28;20191;-50
2023/09/12 10:49:05;;;;;;;0.00;0.00;;;18.80;42.50;;;;;;5070738;28;20565;-50
2023/09/12 10:51:37;;;;;;;0.00;0.00;;;18.80;42.50;;;;;;5069666;28;20195;-50
2023/09/12 10:54:07;;;;;;;0.00;0.00;;;18.70;42.50;;;;;;5072001;28;20195;-46
2023/09/12 10:56:39;;;;;;;0.10;0.10;;;18.70;42.50;;;;;;5074748;28;20677;-52
2023/09/12 10:59:17;;;;;;;0.00;0.00;;;18.70;42.50;;;;;;5073540;28;20198;-53
2023/09/12 11:01:48;;;;;;;0.00;0.00;;;18.70;42.60;;;;;;5074561;28;20191;-54
2023/09/12 11:04:44;;;;;;;0.03;0.03;;;18.70;42.60;;;;;;5066159;28;20626;-52
2023/09/12 11:07:36;;;;;;;0.00;0.00;;;18.70;42.60;;;;;;5049781;28;20720;-52
2023/09/12 11:10:25;;;;;;;0.00;0.00;;;18.60;42.60;;;;;;5073209;28;20213;-56
2023/09/12 11:12:57;;;;;;;0.00;0.00;;;18.60;42.60;;;;;;5073828;28;20226;-55
2023/09/12 11:15:31;;;;;;;0.00;0.00;;;18.60;42.60;;;;;;5073303;28;20195;-54
2023/09/12 11:18:06;;;;;;;0.00;0.00;;;18.50;42.60;;;;;;5074211;28;20578;-52
2023/09/12 11:21:03;;;;;;;0.00;0.00;;;18.50;42.70;;;;;;5073216;28;20322;-53
2023/09/12 11:23:35;;;;;;;0.00;0.00;;;18.50;42.70;;;;;;5074219;28;20227;-53
2023/09/12 11:26:11;;;;;;;0.10;0.10;;;18.50;42.80;;;;;;5073103;28;20233;-47
2023/09/12 11:28:44;;;;;;;0.00;0.00;;;18.50;42.80;;;;;;5073169;28;20203;-51
2023/09/12 11:31:26;;;;;;;0.00;0.00;;;18.50;43.00;;;;;;5072758;28;20215;-51
2023/09/12 11:33:57;;;;;;;0.00;0.00;;;18.40;43.00;;;;;;5073774;28;20199;-49
2023/09/12 11:36:30;;;;;;;0.00;0.00;;;18.40;43.10;;;;;;5072787;28;20226;-51
2023/09/12 11:39:24;;;;;;;0.08;0.08;;;18.40;43.20;;;;;;5073226;28;20199;-56
2023/09/12 11:41:56;;;;;;;0.00;0.00;;;18.40;43.20;;;;;;5073420;28;20629;-57
2023/09/12 11:44:27;;;;;;;0.00;0.00;;;18.40;43.30;;;;;;5072647;28;20627;-56
2023/09/12 11:47:02;;;;;;;0.10;0.10;;;18.40;43.30;;;;;;5073054;28;20663;-55
2023/09/12 11:49:39;;;;;;;0.00;0.00;;;18.30;43.30;;;;;;5071770;28;20219;-56
2023/09/12 11:52:16;;;;;;;0.05;0.05;;;18.40;43.50;;;;;;5073523;28;20658;-53
2023/09/12 11:54:47;;;;;;;0.00;0.00;;;18.30;43.50;;;;;;5073260;28;20639;-52
2023/09/12 11:57:18;;;;;;;0.00;0.00;;;18.30;43.60;;;;;;5072019;28;20214;-53
2023/09/12 11:59:50;;;;;;;0.00;0.00;;;18.30;43.60;;;;;;5072345;28;20218;-56
2023/09/12 12:02:20;;;;;;;0.00;0.00;;;18.30;43.60;;;;;;5072826;28;20195;-53
2023/09/12 12:04:53;;;;;;;0.00;0.00;;;18.20;43.60;;;;;;5071851;28;20615;-53
2023/09/12 12:07:26;;;;;;;0.08;0.08;;;18.20;43.70;;;;;;5072576;28;20549;-57
2023/09/12 12:09:58;;;;;;;0.00;0.00;;;18.30;43.80;;;;;;5072182;28;20214;-55
2023/09/12 12:12:28;;;;;;;0.00;0.00;;;18.30;43.80;;;;;;5072404;28;20563;-54
2023/09/12 12:14:59;;;;;;;0.00;0.00;;;18.30;43.90;;;;;;5072842;28;20199;-48
2023/09/12 12:17:29;;;;;;;0.00;0.00;;;18.20;43.90;;;;;;5072649;28;20198;-52
2023/09/12 12:20:00;;;;;;;0.10;0.10;;;18.20;43.90;;;;;;5072813;28;20226;-53
2023/09/12 12:22:33;;;;;;;0.08;0.08;;;18.20;43.90;;;;;;5072331;28;20191;-53
2023/09/12 12:25:10;;;;;;;0.10;0.10;;;18.20;44.00;;;;;;5052436;28;20223;-53
2023/09/12 12:27:41;;;;;;;0.00;0.00;;;18.20;44.00;;;;;;5057426;28;20633;-51
2023/09/12 12:30:14;;;;;;;0.00;0.00;;;18.20;44.00;;;;;;5069886;28;20651;-48
2023/09/12 12:32:46;;;;;;;0.00;0.00;;;18.20;44.10;;;;;;5072397;28;20191;-55
2023/09/12 12:35:21;;;;;;;0.10;0.10;;;18.10;44.00;;;;;;5070301;28;20206;-54
2023/09/12 12:37:56;;;;;;;0.00;0.00;;;18.10;44.10;;;;;;5072487;28;20584;-51
2023/09/12 12:40:27;;;;;;;0.05;0.05;;;18.10;44.10;;;;;;5072288;28;20709;-55
2023/09/12 12:42:57;;;;;;;0.03;0.03;;;18.10;44.80;;;;;;5069987;28;20191;-50
2023/09/12 12:45:28;;;;;;;0.10;0.10;;;18.10;44.20;;;;;;5072120;28;20226;-51
2023/09/12 12:48:01;;;;;;;0.10;0.10;;;18.10;44.30;;;;;;5072175;28;20194;-51
2023/09/12 12:50:38;;;;;;;0.00;0.00;;;18.00;44.20;;;;;;5071637;28;20211;-57
2023/09/12 12:53:11;;;;;;;0.00;0.00;;;18.00;44.30;;;;;;5071811;28;20281;-54
2023/09/12 12:55:41;;;;;;;0.00;0.00;;;18.00;44.30;;;;;;5072470;28;20191;-55
2023/09/12 12:58:12;;;;;;;0.00;0.00;;;18.00;45.00;;;;;;5071797;28;20190;-53
2023/09/12 13:00:43;;;;;;;0.00;0.00;;;18.00;44.40;;;;;;5072052;28;20211;-57
2023/09/12 13:03:13;;;;;;;0.00;0.00;;;18.00;44.50;;;;;;5072254;28;20681;-55
2023/09/12 13:05:44;;;;;;;0.10;0.10;;;18.00;44.50;;;;;;5072244;28;20203;-51
2023/09/12 13:08:18;;;;;;;0.00;0.00;;;18.00;44.50;;;;;;5072301;28;20286;-49
2023/09/12 13:10:48;;;;;;;0.00;0.00;;;17.90;44.50;;;;;;5071741;28;20982;-52
2023/09/12 13:13:19;;;;;;;0.00;0.00;;;17.90;44.50;;;;;;5071558;28;20186;-51